sensor_id;sensor_type;location;lat;lon;timestamp;temperature;humidity
43842;DHT22;29495;49.970;20.842;2023-05-23T00:00:11;11.20;99.90
43842;DHT22;29495;49.970;20.842;2023-05-23T00:02:39;11.20;99.90
43842;DHT22;29495;49.970;20.842;2023-05-23T00:05:05;11.10;99.90
43842;DHT22;29495;49.970;20.842;2023-05-23T00:07:32;11.10;99.90
43842;DHT22;29495;49.970;20.842;2023-05-23T00:09:58;11.00;99.90
43842;DHT22;29495;49.970;20.842;2023-05-23T00:12:24;11.00;99.90
43842;DHT22;29495;49.970;20.842;2023-05-23T00:14:50;11.10;99.90
43842;DHT22;29495;49.970;20.842;2023-05-23T00:17:18;10.90;99.90
43842;DHT22;29495;49.970;20.842;2023-05-23T00:19:45;10.80;99.90
43842;DHT22;29495;49.970;20.842;2023-05-23T00:22:11;10.70;99.90
43842;DHT22;29495;49.970;20.842;2023-05-23T00:24:37;10.70;99.90
43842;DHT22;29495;49.970;20.842;2023-05-23T00:27:04;10.80;99.90
43842;DHT22;29495;49.970;20.842;2023-05-23T00:29:30;10.70;99.90
43842;DHT22;29495;49.970;20.842;2023-05-23T00:31:56;10.60;99.90
43842;DHT22;29495;49.970;20.842;2023-05-23T00:34:22;10.70;99.90
43842;DHT22;29495;49.970;20.842;2023-05-23T00:36:48;10.60;99.90
43842;DHT22;29495;49.970;20.842;2023-05-23T00:39:15;10.60;99.90
43842;DHT22;29495;49.970;20.842;2023-05-23T00:47:41;10.70;99.90
43842;DHT22;29495;49.970;20.842;2023-05-23T00:50:16;10.60;99.90
43842;DHT22;29495;49.970;20.842;2023-05-23T00:52:44;10.50;99.90
43842;DHT22;29495;49.970;20.842;2023-05-23T00:55:11;10.40;99.90
43842;DHT22;29495;49.970;20.842;2023-05-23T00:57:38;10.40;99.90
43842;DHT22;29495;49.970;20.842;2023-05-23T01:00:12;10.50;99.90
43842;DHT22;29495;49.970;20.842;2023-05-23T01:02:44;10.30;99.90
43842;DHT22;29495;49.970;20.842;2023-05-23T01:05:11;10.40;99.90
43842;DHT22;29495;49.970;20.842;2023-05-23T01:07:40;10.30;99.90
43842;DHT22;29495;49.970;20.842;2023-05-23T01:10:08;10.10;99.90
43842;DHT22;29495;49.970;20.842;2023-05-23T01:13:03;10.20;99.90
43842;DHT22;29495;49.970;20.842;2023-05-23T01:18:09;10.10;99.90
43842;DHT22;29495;49.970;20.842;2023-05-23T01:20:42;10.00;99.90
43842;DHT22;29495;49.970;20.842;2023-05-23T01:23:18;9.90;99.90
43842;DHT22;29495;49.970;20.842;2023-05-23T01:28:45;9.70;99.90
43842;DHT22;29495;49.970;20.842;2023-05-23T01:31:12;9.50;99.90
43842;DHT22;29495;49.970;20.842;2023-05-23T01:33:39;9.40;99.90
43842;DHT22;29495;49.970;20.842;2023-05-23T01:36:06;9.50;99.90
43842;DHT22;29495;49.970;20.842;2023-05-23T01:38:33;9.40;99.90
43842;DHT22;29495;49.970;20.842;2023-05-23T01:40:59;9.50;99.90
43842;DHT22;29495;49.970;20.842;2023-05-23T01:43:25;9.70;99.90
43842;DHT22;29495;49.970;20.842;2023-05-23T01:45:55;9.80;99.90
43842;DHT22;29495;49.970;20.842;2023-05-23T01:48:23;9.80;99.90
43842;DHT22;29495;49.970;20.842;2023-05-23T01:50:51;9.80;99.90
43842;DHT22;29495;49.970;20.842;2023-05-23T01:53:19;9.80;99.90
43842;DHT22;29495;49.970;20.842;2023-05-23T01:55:46;9.60;99.90
43842;DHT22;29495;49.970;20.842;2023-05-23T01:58:13;9.60;99.90
43842;DHT22;29495;49.970;20.842;2023-05-23T02:00:39;9.50;99.90
43842;DHT22;29495;49.970;20.842;2023-05-23T02:03:06;9.40;99.90
43842;DHT22;29495;49.970;20.842;2023-05-23T02:05:32;9.50;99.90
43842;DHT22;29495;49.970;20.842;2023-05-23T02:08:00;9.40;99.90
43842;DHT22;29495;49.970;20.842;2023-05-23T02:10:26;9.30;99.90
43842;DHT22;29495;49.970;20.842;2023-05-23T02:12:52;9.30;99.90
43842;DHT22;29495;49.970;20.842;2023-05-23T02:15:18;9.40;99.90
43842;DHT22;29495;49.970;20.842;2023-05-23T02:17:44;9.40;99.90
43842;DHT22;29495;49.970;20.842;2023-05-23T02:20:10;9.30;99.90
43842;DHT22;29495;49.970;20.842;2023-05-23T02:22:37;9.40;99.90
43842;DHT22;29495;49.970;20.842;2023-05-23T02:25:03;9.40;99.90
43842;DHT22;29495;49.970;20.842;2023-05-23T02:27:29;9.40;99.90
43842;DHT22;29495;49.970;20.842;2023-05-23T02:29:57;9.30;99.90
43842;DHT22;29495;49.970;20.842;2023-05-23T02:32:23;9.20;99.90
43842;DHT22;29495;49.970;20.842;2023-05-23T02:34:49;9.20;99.90
43842;DHT22;29495;49.970;20.842;2023-05-23T02:37:16;9.30;99.90
43842;DHT22;29495;49.970;20.842;2023-05-23T02:39:42;9.30;99.90
43842;DHT22;29495;49.970;20.842;2023-05-23T02:42:08;9.40;99.90
43842;DHT22;29495;49.970;20.842;2023-05-23T02:44:34;9.20;99.90
43842;DHT22;29495;49.970;20.842;2023-05-23T02:47:00;9.10;99.90
43842;DHT22;29495;49.970;20.842;2023-05-23T02:49:26;9.00;99.90
43842;DHT22;29495;49.970;20.842;2023-05-23T02:51:52;9.20;99.90
43842;DHT22;29495;49.970;20.842;2023-05-23T02:54:19;9.30;99.90
43842;DHT22;29495;49.970;20.842;2023-05-23T02:56:45;9.20;99.90
43842;DHT22;29495;49.970;20.842;2023-05-23T02:59:11;9.10;99.90
43842;DHT22;29495;49.970;20.842;2023-05-23T03:01:38;9.10;99.90
43842;DHT22;29495;49.970;20.842;2023-05-23T03:04:04;9.20;99.90
43842;DHT22;29495;49.970;20.842;2023-05-23T03:06:30;9.10;99.90
43842;DHT22;29495;49.970;20.842;2023-05-23T03:09:00;9.20;99.90
43842;DHT22;29495;49.970;20.842;2023-05-23T03:11:26;9.20;99.90
43842;DHT22;29495;49.970;20.842;2023-05-23T03:13:54;9.30;99.90
43842;DHT22;29495;49.970;20.842;2023-05-23T03:23:22;9.60;99.90
43842;DHT22;29495;49.970;20.842;2023-05-23T03:25:49;9.60;99.90
43842;DHT22;29495;49.970;20.842;2023-05-23T03:28:15;9.70;99.90
43842;DHT22;29495;49.970;20.842;2023-05-23T03:30:41;9.60;99.90
43842;DHT22;29495;49.970;20.842;2023-05-23T03:33:07;9.70;99.90
43842;DHT22;29495;49.970;20.842;2023-05-23T03:35:33;9.70;99.90
43842;DHT22;29495;49.970;20.842;2023-05-23T03:38:00;9.70;99.90
43842;DHT22;29495;49.970;20.842;2023-05-23T03:40:25;9.60;99.90
43842;DHT22;29495;49.970;20.842;2023-05-23T03:43:05;9.50;99.90
43842;DHT22;29495;49.970;20.842;2023-05-23T03:45:32;9.70;99.90
43842;DHT22;29495;49.970;20.842;2023-05-23T03:48:01;9.90;99.90
43842;DHT22;29495;49.970;20.842;2023-05-23T03:50:27;10.00;99.90
43842;DHT22;29495;49.970;20.842;2023-05-23T03:52:53;10.00;99.90
43842;DHT22;29495;49.970;20.842;2023-05-23T03:55:20;10.10;99.90
43842;DHT22;29495;49.970;20.842;2023-05-23T03:57:48;10.10;99.90
43842;DHT22;29495;49.970;20.842;2023-05-23T04:00:14;10.10;99.90
43842;DHT22;29495;49.970;20.842;2023-05-23T04:02:44;10.10;99.90
43842;DHT22;29495;49.970;20.842;2023-05-23T04:05:12;10.40;99.90
43842;DHT22;29495;49.970;20.842;2023-05-23T04:07:39;10.40;99.90
43842;DHT22;29495;49.970;20.842;2023-05-23T04:10:08;10.40;99.90
43842;DHT22;29495;49.970;20.842;2023-05-23T04:12:34;10.40;99.90
43842;DHT22;29495;49.970;20.842;2023-05-23T04:15:02;10.60;99.90
43842;DHT22;29495;49.970;20.842;2023-05-23T04:17:30;10.90;99.90
43842;DHT22;29495;49.970;20.842;2023-05-23T04:19:57;11.10;99.90
43842;DHT22;29495;49.970;20.842;2023-05-23T04:22:22;11.20;99.90
43842;DHT22;29495;49.970;20.842;2023-05-23T04:24:49;11.40;99.90
43842;DHT22;29495;49.970;20.842;2023-05-23T04:27:15;11.60;99.90
43842;DHT22;29495;49.970;20.842;2023-05-23T04:29:41;11.80;99.90
43842;DHT22;29495;49.970;20.842;2023-05-23T04:32:09;11.80;99.90
43842;DHT22;29495;49.970;20.842;2023-05-23T04:34:36;11.90;99.90
43842;DHT22;29495;49.970;20.842;2023-05-23T04:37:03;12.00;99.90
43842;DHT22;29495;49.970;20.842;2023-05-23T04:39:30;12.00;99.90
43842;DHT22;29495;49.970;20.842;2023-05-23T04:42:25;12.20;99.90
43842;DHT22;29495;49.970;20.842;2023-05-23T04:45:04;12.40;99.90
43842;DHT22;29495;49.970;20.842;2023-05-23T04:47:51;12.50;99.90
43842;DHT22;29495;49.970;20.842;2023-05-23T04:50:48;12.50;99.90
43842;DHT22;29495;49.970;20.842;2023-05-23T04:53:17;12.80;99.90
43842;DHT22;29495;49.970;20.842;2023-05-23T04:55:44;13.00;99.90
43842;DHT22;29495;49.970;20.842;2023-05-23T04:58:14;13.20;99.90
43842;DHT22;29495;49.970;20.842;2023-05-23T05:00:41;13.40;99.90
43842;DHT22;29495;49.970;20.842;2023-05-23T05:03:07;13.60;99.90
43842;DHT22;29495;49.970;20.842;2023-05-23T05:05:37;13.80;99.90
43842;DHT22;29495;49.970;20.842;2023-05-23T05:08:03;14.30;99.90
43842;DHT22;29495;49.970;20.842;2023-05-23T05:22:15;22.50;94.90
43842;DHT22;29495;49.970;20.842;2023-05-23T05:24:42;23.80;78.50
43842;DHT22;29495;49.970;20.842;2023-05-23T05:27:08;24.80;71.10
43842;DHT22;29495;49.970;20.842;2023-05-23T05:29:37;25.80;66.30
43842;DHT22;29495;49.970;20.842;2023-05-23T05:32:03;26.30;61.20
43842;DHT22;29495;49.970;20.842;2023-05-23T05:34:30;26.40;58.00
43842;DHT22;29495;49.970;20.842;2023-05-23T05:37:10;27.50;57.80
43842;DHT22;29495;49.970;20.842;2023-05-23T05:39:40;28.50;54.40
43842;DHT22;29495;49.970;20.842;2023-05-23T05:42:06;28.00;51.40
43842;DHT22;29495;49.970;20.842;2023-05-23T05:44:33;28.70;52.50
43842;DHT22;29495;49.970;20.842;2023-05-23T05:47:00;28.70;50.40
43842;DHT22;29495;49.970;20.842;2023-05-23T05:49:26;28.40;49.30
43842;DHT22;29495;49.970;20.842;2023-05-23T05:51:54;29.00;50.20
43842;DHT22;29495;49.970;20.842;2023-05-23T05:54:20;28.30;49.40
43842;DHT22;29495;49.970;20.842;2023-05-23T05:56:46;28.90;47.50
43842;DHT22;29495;49.970;20.842;2023-05-23T05:59:13;28.60;44.60
43842;DHT22;29495;49.970;20.842;2023-05-23T06:01:40;29.50;45.60
43842;DHT22;29495;49.970;20.842;2023-05-23T06:04:06;29.10;43.80
43842;DHT22;29495;49.970;20.842;2023-05-23T06:06:33;30.10;44.50
43842;DHT22;29495;49.970;20.842;2023-05-23T06:09:02;30.40;44.40
43842;DHT22;29495;49.970;20.842;2023-05-23T06:11:28;29.30;44.30
43842;DHT22;29495;49.970;20.842;2023-05-23T06:13:54;29.90;44.50
43842;DHT22;29495;49.970;20.842;2023-05-23T06:16:20;29.50;45.00
43842;DHT22;29495;49.970;20.842;2023-05-23T06:18:47;30.90;46.40
43842;DHT22;29495;49.970;20.842;2023-05-23T06:21:13;29.20;42.80
43842;DHT22;29495;49.970;20.842;2023-05-23T06:23:39;30.60;44.60
43842;DHT22;29495;49.970;20.842;2023-05-23T06:26:05;30.50;42.60
43842;DHT22;29495;49.970;20.842;2023-05-23T06:28:37;30.00;43.70
43842;DHT22;29495;49.970;20.842;2023-05-23T06:31:06;30.90;44.00
43842;DHT22;29495;49.970;20.842;2023-05-23T06:33:35;31.40;43.80
43842;DHT22;29495;49.970;20.842;2023-05-23T06:36:01;31.50;42.20
43842;DHT22;29495;49.970;20.842;2023-05-23T06:38:30;31.60;42.10
43842;DHT22;29495;49.970;20.842;2023-05-23T06:40:58;32.10;43.30
43842;DHT22;29495;49.970;20.842;2023-05-23T06:43:26;32.60;42.70
43842;DHT22;29495;49.970;20.842;2023-05-23T06:45:53;31.20;42.20
43842;DHT22;29495;49.970;20.842;2023-05-23T06:48:19;30.60;41.90
43842;DHT22;29495;49.970;20.842;2023-05-23T06:50:46;31.60;42.50
43842;DHT22;29495;49.970;20.842;2023-05-23T06:53:13;32.20;41.50
43842;DHT22;29495;49.970;20.842;2023-05-23T06:55:40;30.30;41.60
43842;DHT22;29495;49.970;20.842;2023-05-23T06:58:08;32.10;41.50
43842;DHT22;29495;49.970;20.842;2023-05-23T07:00:36;33.00;41.00
43842;DHT22;29495;49.970;20.842;2023-05-23T07:07:33;32.70;41.10
43842;DHT22;29495;49.970;20.842;2023-05-23T07:10:00;32.50;40.90
43842;DHT22;29495;49.970;20.842;2023-05-23T07:12:26;32.00;40.20
43842;DHT22;29495;49.970;20.842;2023-05-23T07:14:52;31.70;41.30
43842;DHT22;29495;49.970;20.842;2023-05-23T07:17:19;31.00;40.80
43842;DHT22;29495;49.970;20.842;2023-05-23T07:19:46;31.80;41.50
43842;DHT22;29495;49.970;20.842;2023-05-23T07:22:13;31.10;42.10
43842;DHT22;29495;49.970;20.842;2023-05-23T07:24:41;31.70;41.40
43842;DHT22;29495;49.970;20.842;2023-05-23T07:27:07;30.80;41.20
43842;DHT22;29495;49.970;20.842;2023-05-23T07:29:34;30.30;43.00
43842;DHT22;29495;49.970;20.842;2023-05-23T07:32:00;29.00;45.10
43842;DHT22;29495;49.970;20.842;2023-05-23T07:34:27;29.30;44.50
43842;DHT22;29495;49.970;20.842;2023-05-23T07:36:56;29.40;44.10
43842;DHT22;29495;49.970;20.842;2023-05-23T07:39:24;28.50;44.80
43842;DHT22;29495;49.970;20.842;2023-05-23T07:41:52;27.90;45.00
43842;DHT22;29495;49.970;20.842;2023-05-23T07:44:20;27.50;47.10
43842;DHT22;29495;49.970;20.842;2023-05-23T07:46:46;27.50;46.10
43842;DHT22;29495;49.970;20.842;2023-05-23T07:49:12;27.20;47.30
43842;DHT22;29495;49.970;20.842;2023-05-23T07:51:38;27.40;46.40
43842;DHT22;29495;49.970;20.842;2023-05-23T07:54:05;27.10;47.10
43842;DHT22;29495;49.970;20.842;2023-05-23T07:56:32;26.90;47.30
43842;DHT22;29495;49.970;20.842;2023-05-23T07:58:58;26.20;49.50
43842;DHT22;29495;49.970;20.842;2023-05-23T08:01:24;25.60;49.90
43842;DHT22;29495;49.970;20.842;2023-05-23T08:04:04;25.40;51.10
43842;DHT22;29495;49.970;20.842;2023-05-23T08:06:42;25.60;51.70
43842;DHT22;29495;49.970;20.842;2023-05-23T08:09:12;25.40;51.80
43842;DHT22;29495;49.970;20.842;2023-05-23T08:11:43;25.40;53.40
43842;DHT22;29495;49.970;20.842;2023-05-23T08:14:10;25.70;51.70
43842;DHT22;29495;49.970;20.842;2023-05-23T08:16:36;25.80;49.90
43842;DHT22;29495;49.970;20.842;2023-05-23T08:19:05;26.00;51.80
43842;DHT22;29495;49.970;20.842;2023-05-23T08:21:33;25.80;50.40
43842;DHT22;29495;49.970;20.842;2023-05-23T08:23:59;25.60;51.30
43842;DHT22;29495;49.970;20.842;2023-05-23T08:26:26;25.60;50.50
43842;DHT22;29495;49.970;20.842;2023-05-23T08:28:55;25.80;49.60
43842;DHT22;29495;49.970;20.842;2023-05-23T08:31:21;25.80;52.00
43842;DHT22;29495;49.970;20.842;2023-05-23T08:33:48;26.20;50.80
43842;DHT22;29495;49.970;20.842;2023-05-23T08:36:14;26.20;49.20
43842;DHT22;29495;49.970;20.842;2023-05-23T08:38:42;26.00;49.80
43842;DHT22;29495;49.970;20.842;2023-05-23T08:41:21;26.10;49.20
43842;DHT22;29495;49.970;20.842;2023-05-23T08:43:49;26.20;50.60
43842;DHT22;29495;49.970;20.842;2023-05-23T08:46:22;26.30;52.60
43842;DHT22;29495;49.970;20.842;2023-05-23T08:48:53;26.40;51.20
43842;DHT22;29495;49.970;20.842;2023-05-23T08:51:21;26.10;52.20
43842;DHT22;29495;49.970;20.842;2023-05-23T08:53:48;25.90;50.50
43842;DHT22;29495;49.970;20.842;2023-05-23T08:56:15;26.00;55.70
43842;DHT22;29495;49.970;20.842;2023-05-23T08:58:45;25.90;49.60
43842;DHT22;29495;49.970;20.842;2023-05-23T09:01:14;26.30;48.80
43842;DHT22;29495;49.970;20.842;2023-05-23T09:03:43;26.60;51.60
43842;DHT22;29495;49.970;20.842;2023-05-23T09:06:30;26.90;53.40
43842;DHT22;29495;49.970;20.842;2023-05-23T09:08:57;26.80;51.90
43842;DHT22;29495;49.970;20.842;2023-05-23T09:11:27;26.60;52.30
43842;DHT22;29495;49.970;20.842;2023-05-23T09:13:56;27.00;50.80
43842;DHT22;29495;49.970;20.842;2023-05-23T09:16:31;26.50;48.60
43842;DHT22;29495;49.970;20.842;2023-05-23T09:19:14;26.20;49.80
43842;DHT22;29495;49.970;20.842;2023-05-23T09:21:45;26.50;53.90
43842;DHT22;29495;49.970;20.842;2023-05-23T09:24:21;26.60;50.10
43842;DHT22;29495;49.970;20.842;2023-05-23T09:27:14;26.30;49.80
43842;DHT22;29495;49.970;20.842;2023-05-23T09:30:09;26.30;50.30
43842;DHT22;29495;49.970;20.842;2023-05-23T09:32:38;26.60;51.80
43842;DHT22;29495;49.970;20.842;2023-05-23T09:35:06;26.60;49.30
43842;DHT22;29495;49.970;20.842;2023-05-23T09:37:57;26.40;51.70
43842;DHT22;29495;49.970;20.842;2023-05-23T09:40:30;26.80;50.90
43842;DHT22;29495;49.970;20.842;2023-05-23T09:43:08;26.90;50.20
43842;DHT22;29495;49.970;20.842;2023-05-23T09:45:34;26.50;49.60
43842;DHT22;29495;49.970;20.842;2023-05-23T09:48:01;27.10;51.60
43842;DHT22;29495;49.970;20.842;2023-05-23T09:50:32;26.90;51.80
43842;DHT22;29495;49.970;20.842;2023-05-23T09:52:59;26.50;52.90
43842;DHT22;29495;49.970;20.842;2023-05-23T09:55:32;26.50;56.00
43842;DHT22;29495;49.970;20.842;2023-05-23T09:57:59;26.20;51.10
43842;DHT22;29495;49.970;20.842;2023-05-23T10:00:26;26.30;54.60
43842;DHT22;29495;49.970;20.842;2023-05-23T10:09:55;26.60;49.90
43842;DHT22;29495;49.970;20.842;2023-05-23T10:15:02;26.30;51.80
43842;DHT22;29495;49.970;20.842;2023-05-23T10:17:45;26.50;53.70
43842;DHT22;29495;49.970;20.842;2023-05-23T10:20:19;26.50;53.10
43842;DHT22;29495;49.970;20.842;2023-05-23T10:22:49;26.60;51.80
43842;DHT22;29495;49.970;20.842;2023-05-23T10:25:18;26.60;54.90
43842;DHT22;29495;49.970;20.842;2023-05-23T10:27:44;26.70;55.20
43842;DHT22;29495;49.970;20.842;2023-05-23T10:30:27;27.00;56.40
43842;DHT22;29495;49.970;20.842;2023-05-23T10:32:54;26.90;51.60
43842;DHT22;29495;49.970;20.842;2023-05-23T10:46:08;27.10;49.30
43842;DHT22;29495;49.970;20.842;2023-05-23T10:48:39;27.40;50.50
43842;DHT22;29495;49.970;20.842;2023-05-23T10:51:11;27.40;49.90
43842;DHT22;29495;49.970;20.842;2023-05-23T10:53:45;27.40;50.70
43842;DHT22;29495;49.970;20.842;2023-05-23T10:56:30;27.30;48.10
43842;DHT22;29495;49.970;20.842;2023-05-23T10:59:04;27.20;46.50
43842;DHT22;29495;49.970;20.842;2023-05-23T11:01:41;27.70;47.30
43842;DHT22;29495;49.970;20.842;2023-05-23T11:04:11;27.90;49.60
43842;DHT22;29495;49.970;20.842;2023-05-23T11:06:42;27.40;48.60
43842;DHT22;29495;49.970;20.842;2023-05-23T11:09:18;27.40;47.90
43842;DHT22;29495;49.970;20.842;2023-05-23T11:12:02;27.20;46.10
43842;DHT22;29495;49.970;20.842;2023-05-23T11:19:38;27.20;46.40
43842;DHT22;29495;49.970;20.842;2023-05-23T11:22:08;27.60;47.00
43842;DHT22;29495;49.970;20.842;2023-05-23T11:33:23;27.40;47.40
43842;DHT22;29495;49.970;20.842;2023-05-23T11:35:52;27.40;50.30
43842;DHT22;29495;49.970;20.842;2023-05-23T11:38:18;27.40;48.30
43842;DHT22;29495;49.970;20.842;2023-05-23T11:41:13;27.40;44.70
43842;DHT22;29495;49.970;20.842;2023-05-23T11:43:49;27.90;45.30
43842;DHT22;29495;49.970;20.842;2023-05-23T11:46:16;28.00;45.40
43842;DHT22;29495;49.970;20.842;2023-05-23T11:48:48;28.40;47.70
43842;DHT22;29495;49.970;20.842;2023-05-23T11:51:14;27.90;46.00
43842;DHT22;29495;49.970;20.842;2023-05-23T11:53:53;27.90;45.40
43842;DHT22;29495;49.970;20.842;2023-05-23T11:56:25;27.60;45.60
43842;DHT22;29495;49.970;20.842;2023-05-23T11:58:57;28.20;48.90
43842;DHT22;29495;49.970;20.842;2023-05-23T12:01:28;28.40;47.50
43842;DHT22;29495;49.970;20.842;2023-05-23T12:04:08;27.90;47.10
43842;DHT22;29495;49.970;20.842;2023-05-23T12:06:41;28.00;45.80
43842;DHT22;29495;49.970;20.842;2023-05-23T12:09:11;27.90;45.80
43842;DHT22;29495;49.970;20.842;2023-05-23T12:11:39;27.80;45.20
43842;DHT22;29495;49.970;20.842;2023-05-23T12:14:23;28.30;46.10
43842;DHT22;29495;49.970;20.842;2023-05-23T12:16:59;28.50;43.00
43842;DHT22;29495;49.970;20.842;2023-05-23T12:19:34;28.50;42.80
43842;DHT22;29495;49.970;20.842;2023-05-23T12:22:09;28.60;42.50
43842;DHT22;29495;49.970;20.842;2023-05-23T12:24:55;28.40;40.10
43842;DHT22;29495;49.970;20.842;2023-05-23T12:31:19;28.30;40.20
43842;DHT22;29495;49.970;20.842;2023-05-23T12:33:52;28.00;39.90
43842;DHT22;29495;49.970;20.842;2023-05-23T12:36:23;27.90;45.40
43842;DHT22;29495;49.970;20.842;2023-05-23T12:39:02;28.00;40.20
43842;DHT22;29495;49.970;20.842;2023-05-23T12:41:33;28.00;41.10
43842;DHT22;29495;49.970;20.842;2023-05-23T12:44:00;28.30;45.50
43842;DHT22;29495;49.970;20.842;2023-05-23T12:46:45;28.00;40.40
43842;DHT22;29495;49.970;20.842;2023-05-23T12:49:11;28.20;41.50
43842;DHT22;29495;49.970;20.842;2023-05-23T12:51:39;28.20;40.50
43842;DHT22;29495;49.970;20.842;2023-05-23T12:54:08;28.20;41.80
43842;DHT22;29495;49.970;20.842;2023-05-23T12:56:36;28.30;40.60
43842;DHT22;29495;49.970;20.842;2023-05-23T12:59:10;28.20;44.20
43842;DHT22;29495;49.970;20.842;2023-05-23T13:01:36;28.20;41.00
43842;DHT22;29495;49.970;20.842;2023-05-23T13:04:03;28.10;41.20
43842;DHT22;29495;49.970;20.842;2023-05-23T13:06:29;28.00;40.30
43842;DHT22;29495;49.970;20.842;2023-05-23T13:08:56;28.00;40.20
43842;DHT22;29495;49.970;20.842;2023-05-23T13:11:23;28.50;43.00
43842;DHT22;29495;49.970;20.842;2023-05-23T13:13:52;28.60;43.00
43842;DHT22;29495;49.970;20.842;2023-05-23T13:16:21;29.00;47.60
43842;DHT22;29495;49.970;20.842;2023-05-23T13:18:50;29.10;46.00
43842;DHT22;29495;49.970;20.842;2023-05-23T13:21:18;29.30;43.60
43842;DHT22;29495;49.970;20.842;2023-05-23T13:23:49;29.00;42.50
43842;DHT22;29495;49.970;20.842;2023-05-23T13:26:18;28.90;42.60
43842;DHT22;29495;49.970;20.842;2023-05-23T13:28:44;28.70;41.20
43842;DHT22;29495;49.970;20.842;2023-05-23T13:31:15;28.80;45.60
43842;DHT22;29495;49.970;20.842;2023-05-23T13:33:45;28.80;42.60
43842;DHT22;29495;49.970;20.842;2023-05-23T13:36:21;28.80;42.80
43842;DHT22;29495;49.970;20.842;2023-05-23T13:38:54;29.00;43.40
43842;DHT22;29495;49.970;20.842;2023-05-23T13:41:23;28.40;40.40
43842;DHT22;29495;49.970;20.842;2023-05-23T13:43:55;28.90;44.70
43842;DHT22;29495;49.970;20.842;2023-05-23T13:46:22;28.70;44.20
43842;DHT22;29495;49.970;20.842;2023-05-23T13:48:51;28.70;40.50
43842;DHT22;29495;49.970;20.842;2023-05-23T13:51:20;29.00;42.70
43842;DHT22;29495;49.970;20.842;2023-05-23T13:53:46;28.80;41.90
43842;DHT22;29495;49.970;20.842;2023-05-23T13:56:16;28.80;42.40
43842;DHT22;29495;49.970;20.842;2023-05-23T13:58:45;28.80;42.80
43842;DHT22;29495;49.970;20.842;2023-05-23T14:01:24;28.90;43.70
43842;DHT22;29495;49.970;20.842;2023-05-23T14:03:55;28.60;42.10
43842;DHT22;29495;49.970;20.842;2023-05-23T14:06:21;28.90;42.90
43842;DHT22;29495;49.970;20.842;2023-05-23T14:08:47;28.90;44.40
43842;DHT22;29495;49.970;20.842;2023-05-23T14:11:14;29.10;45.90
43842;DHT22;29495;49.970;20.842;2023-05-23T14:13:40;29.00;43.90
43842;DHT22;29495;49.970;20.842;2023-05-23T14:16:06;28.80;41.00
43842;DHT22;29495;49.970;20.842;2023-05-23T14:18:32;28.50;40.50
43842;DHT22;29495;49.970;20.842;2023-05-23T14:20:58;28.60;42.10
43842;DHT22;29495;49.970;20.842;2023-05-23T14:23:24;28.70;42.10
43842;DHT22;29495;49.970;20.842;2023-05-23T14:25:50;29.10;40.00
43842;DHT22;29495;49.970;20.842;2023-05-23T14:28:17;29.10;39.10
43842;DHT22;29495;49.970;20.842;2023-05-23T14:30:43;29.00;39.10
43842;DHT22;29495;49.970;20.842;2023-05-23T14:33:09;28.60;41.50
43842;DHT22;29495;49.970;20.842;2023-05-23T14:35:35;28.30;43.30
43842;DHT22;29495;49.970;20.842;2023-05-23T14:38:03;28.20;44.30
43842;DHT22;29495;49.970;20.842;2023-05-23T14:40:29;28.20;43.10
43842;DHT22;29495;49.970;20.842;2023-05-23T14:43:05;28.10;42.60
43842;DHT22;29495;49.970;20.842;2023-05-23T14:45:32;28.20;42.60
43842;DHT22;29495;49.970;20.842;2023-05-23T14:47:58;28.30;42.90
43842;DHT22;29495;49.970;20.842;2023-05-23T14:50:25;28.30;41.00
43842;DHT22;29495;49.970;20.842;2023-05-23T14:52:51;28.10;43.60
43842;DHT22;29495;49.970;20.842;2023-05-23T14:55:17;27.60;43.10
43842;DHT22;29495;49.970;20.842;2023-05-23T14:57:44;27.70;44.50
43842;DHT22;29495;49.970;20.842;2023-05-23T15:00:10;27.70;46.90
43842;DHT22;29495;49.970;20.842;2023-05-23T15:02:37;27.40;45.30
43842;DHT22;29495;49.970;20.842;2023-05-23T15:05:04;27.60;47.60
43842;DHT22;29495;49.970;20.842;2023-05-23T15:07:30;27.40;46.70
43842;DHT22;29495;49.970;20.842;2023-05-23T15:09:57;27.40;48.00
43842;DHT22;29495;49.970;20.842;2023-05-23T15:24:37;27.40;47.70
43842;DHT22;29495;49.970;20.842;2023-05-23T15:27:04;27.50;47.50
43842;DHT22;29495;49.970;20.842;2023-05-23T15:29:33;27.40;46.20
43842;DHT22;29495;49.970;20.842;2023-05-23T15:32:00;27.30;47.20
43842;DHT22;29495;49.970;20.842;2023-05-23T15:34:26;27.40;50.10
43842;DHT22;29495;49.970;20.842;2023-05-23T15:36:52;27.30;49.70
43842;DHT22;29495;49.970;20.842;2023-05-23T15:39:18;27.30;47.90
43842;DHT22;29495;49.970;20.842;2023-05-23T15:41:44;27.10;43.20
43842;DHT22;29495;49.970;20.842;2023-05-23T15:44:11;27.10;52.70
43842;DHT22;29495;49.970;20.842;2023-05-23T15:46:38;27.10;51.40
43842;DHT22;29495;49.970;20.842;2023-05-23T15:49:04;27.20;48.80
43842;DHT22;29495;49.970;20.842;2023-05-23T15:51:30;27.20;48.80
43842;DHT22;29495;49.970;20.842;2023-05-23T15:53:57;27.40;49.60
43842;DHT22;29495;49.970;20.842;2023-05-23T15:56:23;27.40;48.80
43842;DHT22;29495;49.970;20.842;2023-05-23T15:58:50;27.40;48.00
43842;DHT22;29495;49.970;20.842;2023-05-23T16:01:16;27.30;45.70
43842;DHT22;29495;49.970;20.842;2023-05-23T16:03:42;27.40;47.10
43842;DHT22;29495;49.970;20.842;2023-05-23T16:06:09;27.50;45.30
43842;DHT22;29495;49.970;20.842;2023-05-23T16:08:50;27.20;44.10
43842;DHT22;29495;49.970;20.842;2023-05-23T16:11:17;27.00;42.40
43842;DHT22;29495;49.970;20.842;2023-05-23T16:13:43;27.10;43.40
43842;DHT22;29495;49.970;20.842;2023-05-23T16:19:02;26.90;43.80
43842;DHT22;29495;49.970;20.842;2023-05-23T16:21:28;27.00;44.20
43842;DHT22;29495;49.970;20.842;2023-05-23T16:23:54;27.10;43.40
43842;DHT22;29495;49.970;20.842;2023-05-23T16:26:20;27.10;43.40
43842;DHT22;29495;49.970;20.842;2023-05-23T16:28:46;27.20;41.60
43842;DHT22;29495;49.970;20.842;2023-05-23T16:31:16;27.20;41.20
43842;DHT22;29495;49.970;20.842;2023-05-23T16:34:16;27.30;42.70
43842;DHT22;29495;49.970;20.842;2023-05-23T16:36:54;27.20;40.40
43842;DHT22;29495;49.970;20.842;2023-05-23T16:39:41;27.10;40.90
43842;DHT22;29495;49.970;20.842;2023-05-23T16:42:08;27.10;41.70
43842;DHT22;29495;49.970;20.842;2023-05-23T16:44:34;27.20;43.00
43842;DHT22;29495;49.970;20.842;2023-05-23T16:47:00;27.10;44.70
43842;DHT22;29495;49.970;20.842;2023-05-23T16:49:26;26.80;41.80
43842;DHT22;29495;49.970;20.842;2023-05-23T16:51:52;26.60;42.80
43842;DHT22;29495;49.970;20.842;2023-05-23T16:54:23;26.40;43.40
43842;DHT22;29495;49.970;20.842;2023-05-23T16:56:49;26.40;43.50